createdAt,value
2023-03-23T15:59:53.932Z,28.45
2023-03-23T16:04:58.213Z,27.60
2023-03-23T16:10:01.140Z,34.28
2023-03-23T16:15:04.164Z,24.13
2023-03-23T16:20:19.555Z,26.65
2023-03-23T16:25:22.582Z,36.28
2023-03-23T16:30:27.117Z,29.73
2023-03-23T16:35:31.643Z,34.75
2023-03-23T16:40:34.896Z,27.10
2023-03-23T16:45:38.341Z,33.33
2023-03-23T16:50:43.330Z,32.55
2023-03-23T16:55:48.443Z,31.40
2023-03-23T17:00:53.542Z,32.03
2023-03-23T17:05:57.652Z,29.67
2023-03-23T17:11:00.740Z,28.67
2023-03-23T17:16:03.721Z,26.42
2023-03-23T17:21:08.535Z,39.25
2023-03-23T17:26:11.497Z,30.60
2023-03-23T17:31:14.339Z,29.27
2023-03-23T17:36:18.653Z,33.03
2023-03-23T17:41:21.745Z,25.83
2023-03-23T17:46:24.862Z,33.93
2023-03-23T17:51:29.193Z,29.83
2023-03-23T17:56:31.989Z,32.17
2023-03-23T18:01:34.885Z,21.80
2023-03-23T18:06:39.200Z,34.93
2023-03-23T18:11:42.065Z,29.02
2023-03-23T18:16:44.989Z,30.63
2023-03-23T18:21:49.265Z,28.87
2023-03-23T18:26:52.061Z,38.63
2023-03-23T18:31:54.964Z,31.77
2023-03-23T18:36:59.218Z,28.50
2023-03-23T18:42:02.339Z,29.77
2023-03-23T18:47:05.568Z,39.40
2023-03-23T18:52:09.752Z,36.25
2023-03-23T18:57:12.693Z,36.47
2023-03-23T19:02:18.298Z,37.78
2023-03-23T19:07:22.560Z,33.60
2023-03-23T19:12:25.396Z,38.50
2023-03-23T19:17:28.280Z,42.33
2023-03-23T19:22:32.819Z,32.65
2023-03-23T19:32:41.166Z,39.92
2023-03-23T19:37:46.367Z,37.08
2023-03-23T19:42:49.202Z,33.80
2023-03-23T19:47:52.221Z,37.97
2023-03-23T19:52:58.390Z,41.60
2023-03-23T19:58:03.113Z,37.78
2023-03-23T20:03:06.307Z,34.72
2023-03-23T20:08:11.122Z,34.90
2023-03-23T20:13:14.073Z,40.25
2023-03-23T20:18:18.794Z,41.42
2023-03-23T20:23:23.106Z,35.07
2023-03-23T20:28:25.999Z,27.27
2023-03-23T20:33:30.526Z,37.20
2023-03-23T20:38:35.592Z,32.92
2023-03-23T20:43:39.232Z,30.13
2023-03-23T20:48:42.747Z,28.95
2023-03-23T20:53:48.434Z,26.02
2023-03-23T20:58:51.225Z,43.92
2023-03-23T21:03:54.390Z,37.10
2023-03-23T21:08:59.304Z,41.45
2023-03-23T21:14:02.470Z,34.35
2023-03-23T21:19:06.176Z,33.03
2023-03-23T21:24:11.978Z,35.60
2023-03-23T21:29:15.417Z,34.08
2023-03-23T21:34:18.390Z,39.35
2023-03-23T21:39:22.604Z,36.92
2023-03-23T21:44:25.512Z,39.03
2023-03-23T21:49:28.863Z,50.78
2023-03-23T21:54:34.323Z,51.90
2023-03-23T21:59:37.173Z,55.30
2023-03-23T22:04:40.002Z,57.40
2023-03-23T22:09:44.891Z,50.43
2023-03-23T22:14:47.895Z,50.20
2023-03-23T22:19:51.240Z,43.67
2023-03-23T22:24:55.471Z,47.33
2023-03-23T22:29:58.351Z,40.13
2023-03-23T22:35:01.263Z,45.20
2023-03-23T22:40:07.149Z,40.80
2023-03-23T22:45:10.437Z,43.50
2023-03-23T22:50:13.401Z,35.65
2023-03-23T22:55:17.932Z,39.15
2023-03-23T23:00:20.896Z,32.63
2023-03-23T23:05:23.745Z,33.90
2023-03-23T23:10:28.015Z,24.17
2023-03-23T23:15:30.924Z,26.52
2023-03-23T23:20:34.420Z,33.67
2023-03-23T23:25:39.513Z,25.77
2023-03-23T23:30:42.370Z,27.80
2023-03-23T23:35:45.549Z,25.65
2023-03-23T23:40:49.998Z,28.53
2023-03-23T23:45:52.846Z,29.75
2023-03-23T23:50:55.705Z,26.98
2023-03-23T23:56:03.696Z,27.97
